Time;durP1;ratioP1;P1;durP2;ratioP2;P2;SDS_P1;SDS_P2;PMS_P1;PMS_P2;Temp;Humidity;BMP_temperature;BMP_pressure;BME280_temperature;BME280_humidity;BME280_pressure;Samples;Min_cycle;Max_cycle;Signal;HPM_P1;HPM_P2
2022/06/29 00:00:09;;;;;;;;;;;17.80;99.90;;;;;;5014622;28;20385;-74
2022/06/29 00:02:35;;;;;;;;;;;17.80;99.90;;;;;;5016896;28;20006;-74
2022/06/29 00:05:02;;;;;;;;;;;17.80;99.90;;;;;;5015788;28;19905;-75
2022/06/29 00:07:27;;;;;;;;;;;17.70;99.90;;;;;;5014756;28;19923;-76
2022/06/29 00:09:53;;;;;;;;;;;17.70;99.90;;;;;;5015911;28;19913;-76
2022/06/29 00:12:18;;;;;;;;;;;17.70;99.90;;;;;;5015976;28;20377;-75
2022/06/29 00:14:44;;;;;;;;;;;17.70;99.90;;;;;;5014684;28;20112;-75
2022/06/29 00:17:10;;;;;;;;;;;17.60;99.90;;;;;;5015275;28;19906;-75
2022/06/29 00:19:36;;;;;;;;;;;17.50;99.90;;;;;;5015680;28;19909;-75
2022/06/29 00:22:01;;;;;;;;;;;17.50;99.90;;;;;;5040107;22;19893;-56
2022/06/29 00:24:27;;;;;;;;;;;17.50;99.90;;;;;;5013420;28;19921;-55
2022/06/29 00:26:53;;;;;;;;;;;17.40;99.90;;;;;;5014951;28;20363;-58
2022/06/29 00:29:18;;;;;;;;;;;17.40;99.90;;;;;;5014251;28;19912;-56
2022/06/29 00:31:44;;;;;;;;;;;17.40;99.90;;;;;;5014219;28;20278;-57
2022/06/29 00:34:09;;;;;;;;;;;17.40;99.90;;;;;;5013912;28;19905;-56
2022/06/29 00:36:35;;;;;;;;;;;17.30;99.90;;;;;;5013243;28;19952;-54
2022/06/29 00:39:00;;;;;;;;;;;17.30;99.90;;;;;;5013153;28;19920;-56
2022/06/29 00:41:26;;;;;;;;;;;17.20;99.90;;;;;;5013647;28;19913;-56
2022/06/29 00:43:52;;;;;;;;;;;17.30;99.90;;;;;;5014408;28;20382;-55
2022/06/29 00:46:17;;;;;;;;;;;17.20;99.90;;;;;;5013086;28;19928;-56
2022/06/29 00:48:43;;;;;;;;;;;17.20;99.90;;;;;;5014993;28;19905;-57
2022/06/29 00:51:10;;;;;;;;;;;17.20;99.90;;;;;;5014760;28;20405;-56
2022/06/29 00:53:37;;;;;;;;;;;17.20;99.90;;;;;;5015361;28;19996;-56
2022/06/29 00:56:07;;;;;;;;;;;17.10;99.90;;;;;;5012980;28;19905;-56
2022/06/29 00:58:33;;;;;;;;;;;17.00;99.90;;;;;;5012455;28;20349;-55
2022/06/29 01:01:03;;;;;;;;;;;17.00;99.90;;;;;;5014588;28;19960;-55
2022/06/29 01:03:29;;;;;;;;;;;17.00;99.90;;;;;;5014318;28;19928;-54
2022/06/29 01:05:55;;;;;;;;;;;17.00;99.90;;;;;;5014079;28;19905;-52
2022/06/29 01:08:20;;;;;;;;;;;17.00;99.90;;;;;;5012697;28;20000;-55
2022/06/29 01:10:46;;;;;;;;;;;17.00;99.90;;;;;;5014031;28;19909;-60
2022/06/29 01:13:11;;;;;;;;;;;16.90;99.90;;;;;;5013586;28;19921;-56
2022/06/29 01:15:37;;;;;;;;;;;16.90;99.90;;;;;;5013964;28;19905;-55
2022/06/29 01:18:03;;;;;;;;;;;16.90;99.90;;;;;;5014801;28;19906;-55
2022/06/29 01:20:28;;;;;;;;;;;16.80;99.90;;;;;;5013721;28;19906;-55
2022/06/29 01:22:54;;;;;;;;;;;16.70;99.90;;;;;;5014164;28;19920;-56
2022/06/29 01:25:20;;;;;;;;;;;16.80;99.90;;;;;;5015205;28;19963;-56
2022/06/29 01:27:45;;;;;;;;;;;16.70;99.90;;;;;;5014424;28;19915;-56
2022/06/29 01:30:11;;;;;;;;;;;16.70;99.90;;;;;;5014230;28;20355;-55
2022/06/29 01:32:40;;;;;;;;;;;16.70;99.90;;;;;;5014229;28;19909;-56
2022/06/29 01:35:07;;;;;;;;;;;16.70;99.90;;;;;;5011698;28;20028;-57
2022/06/29 01:37:33;;;;;;;;;;;16.70;99.90;;;;;;5014174;28;19959;-57
2022/06/29 01:39:58;;;;;;;;;;;16.60;99.90;;;;;;5013296;28;19906;-56
2022/06/29 01:42:24;;;;;;;;;;;16.50;99.90;;;;;;5011473;28;19911;-57
2022/06/29 01:44:49;;;;;;;;;;;16.50;99.90;;;;;;5013968;28;19936;-57
2022/06/29 01:47:15;;;;;;;;;;;16.50;99.90;;;;;;5013522;28;19906;-57
2022/06/29 01:49:40;;;;;;;;;;;16.50;99.90;;;;;;5013136;28;19916;-57
2022/06/29 01:52:06;;;;;;;;;;;16.50;99.90;;;;;;5014089;28;20314;-57
2022/06/29 01:54:31;;;;;;;;;;;16.50;99.90;;;;;;5013759;28;19959;-58
2022/06/29 01:56:57;;;;;;;;;;;16.50;99.90;;;;;;5014109;28;20347;-55
2022/06/29 01:59:22;;;;;;;;;;;16.60;99.90;;;;;;5014136;28;20278;-56
2022/06/29 02:01:48;;;;;;;;;;;16.60;99.90;;;;;;5013861;28;20321;-57
2022/06/29 02:04:14;;;;;;;;;;;16.60;99.90;;;;;;5017282;28;19905;-58
2022/06/29 02:06:40;;;;;;;;;;;16.60;99.90;;;;;;5017915;28;20294;-58
2022/06/29 02:09:05;;;;;;;;;;;16.50;99.90;;;;;;5018282;28;19913;-54
2022/06/29 02:11:31;;;;;;;;;;;16.60;99.90;;;;;;5017708;28;20353;-57
2022/06/29 02:13:56;;;;;;;;;;;16.60;99.90;;;;;;5017532;28;19910;-58
2022/06/29 02:16:22;;;;;;;;;;;16.60;99.90;;;;;;5017824;28;19905;-54
2022/06/29 02:18:48;;;;;;;;;;;16.60;99.90;;;;;;5017713;28;20428;-55
2022/06/29 02:21:14;;;;;;;;;;;16.50;99.90;;;;;;5018211;28;19906;-54
2022/06/29 02:23:39;;;;;;;;;;;16.60;99.90;;;;;;5017437;28;19983;-55
2022/06/29 02:26:05;;;;;;;;;;;16.50;99.90;;;;;;5017649;28;20004;-54
2022/06/29 02:28:30;;;;;;;;;;;16.50;99.90;;;;;;5017488;28;20325;-57
2022/06/29 02:36:24;;;;;;;;;;;16.40;99.90;;;;;;5017863;28;19990;-57
2022/06/29 02:38:49;;;;;;;;;;;16.50;99.90;;;;;;5017639;28;19905;-57
2022/06/29 02:41:15;;;;;;;;;;;16.50;99.90;;;;;;5017500;28;19905;-55
2022/06/29 02:43:40;;;;;;;;;;;16.50;99.90;;;;;;5015914;28;19909;-59
2022/06/29 02:46:06;;;;;;;;;;;16.40;99.90;;;;;;5017581;28;19913;-56
2022/06/29 02:48:32;;;;;;;;;;;16.40;99.90;;;;;;5017196;28;19906;-58
2022/06/29 02:50:58;;;;;;;;;;;16.40;99.90;;;;;;5017153;28;20008;-58
2022/06/29 02:53:24;;;;;;;;;;;16.40;99.90;;;;;;5015817;28;20034;-57
2022/06/29 02:55:49;;;;;;;;;;;16.50;99.90;;;;;;5016924;28;19906;-54
2022/06/29 02:58:15;;;;;;;;;;;16.50;99.90;;;;;;5016852;28;19912;-58
2022/06/29 03:00:40;;;;;;;;;;;16.50;99.90;;;;;;5016782;28;20433;-57
2022/06/29 03:03:06;;;;;;;;;;;16.50;99.90;;;;;;5017020;28;19912;-56
2022/06/29 03:05:31;;;;;;;;;;;16.40;99.90;;;;;;5016705;28;19912;-54
2022/06/29 03:07:57;;;;;;;;;;;16.40;99.90;;;;;;5016782;28;19905;-57
2022/06/29 03:10:22;;;;;;;;;;;16.40;99.90;;;;;;5016847;28;19955;-58
2022/06/29 03:12:48;;;;;;;;;;;16.30;99.90;;;;;;5016637;28;19913;-57
2022/06/29 03:15:13;;;;;;;;;;;16.30;99.90;;;;;;5016271;28;19905;-56
2022/06/29 03:17:39;;;;;;;;;;;16.20;99.90;;;;;;5016532;28;19905;-57
2022/06/29 03:20:05;;;;;;;;;;;16.20;99.90;;;;;;5016874;28;19913;-55
2022/06/29 03:22:34;;;;;;;;;;;16.30;99.90;;;;;;5016425;28;19917;-56
2022/06/29 03:25:00;;;;;;;;;;;16.40;99.90;;;;;;5016621;28;19912;-58
2022/06/29 03:27:25;;;;;;;;;;;16.30;99.90;;;;;;5016470;28;20290;-56
2022/06/29 03:29:51;;;;;;;;;;;16.30;99.90;;;;;;5016455;28;19905;-54
2022/06/29 03:32:16;;;;;;;;;;;16.20;99.90;;;;;;5016276;28;19905;-57
2022/06/29 03:34:42;;;;;;;;;;;16.30;99.90;;;;;;5015000;28;20373;-58
2022/06/29 03:37:07;;;;;;;;;;;16.20;99.90;;;;;;5016126;28;19988;-57
2022/06/29 03:39:33;;;;;;;;;;;16.20;99.90;;;;;;5016437;28;19905;-57
2022/06/29 03:41:59;;;;;;;;;;;16.20;99.90;;;;;;5016152;28;19905;-57
2022/06/29 03:44:25;;;;;;;;;;;16.30;99.90;;;;;;5016032;28;20005;-56
2022/06/29 03:46:50;;;;;;;;;;;16.30;99.90;;;;;;5016194;28;20350;-55
2022/06/29 03:49:16;;;;;;;;;;;16.20;99.90;;;;;;5016003;28;19956;-57
2022/06/29 03:51:41;;;;;;;;;;;16.20;99.90;;;;;;5015825;28;19932;-58
2022/06/29 03:54:07;;;;;;;;;;;16.20;99.90;;;;;;5015974;28;19972;-57
2022/06/29 03:56:32;;;;;;;;;;;16.20;99.90;;;;;;5015800;28;19906;-58
2022/06/29 03:58:58;;;;;;;;;;;16.30;99.90;;;;;;5016644;28;20391;-57
2022/06/29 04:01:23;;;;;;;;;;;16.30;99.90;;;;;;5016253;28;19913;-57
2022/06/29 04:03:49;;;;;;;;;;;16.30;99.90;;;;;;5016156;28;19905;-54
2022/06/29 04:06:14;;;;;;;;;;;16.20;99.90;;;;;;5016551;28;20287;-58
2022/06/29 04:08:40;;;;;;;;;;;16.20;99.90;;;;;;5015445;28;19960;-57
2022/06/29 04:11:48;;;;;;;;;;;16.20;99.90;;;;;;5016303;28;19955;-55
2022/06/29 04:13:52;;;;;;;;;;;16.30;99.90;;;;;;5015718;28;19954;-56
2022/06/29 04:16:18;;;;;;;;;;;16.30;99.90;;;;;;5015677;28;19940;-56
2022/06/29 04:18:43;;;;;;;;;;;16.30;99.90;;;;;;5015934;28;19905;-58
2022/06/29 04:21:09;;;;;;;;;;;16.30;99.90;;;;;;5015661;28;19913;-57
2022/06/29 04:23:34;;;;;;;;;;;16.30;99.90;;;;;;5015519;28;19964;-56
2022/06/29 04:26:00;;;;;;;;;;;16.40;99.90;;;;;;5015523;28;19910;-54
2022/06/29 04:28:26;;;;;;;;;;;16.40;99.90;;;;;;5015606;28;19905;-57
2022/06/29 04:30:51;;;;;;;;;;;16.50;99.90;;;;;;5015701;28;20429;-54
2022/06/29 04:33:17;;;;;;;;;;;16.50;99.90;;;;;;5015360;28;19966;-57
2022/06/29 04:35:42;;;;;;;;;;;16.50;99.90;;;;;;5015600;28;19973;-54
2022/06/29 04:38:08;;;;;;;;;;;16.60;99.90;;;;;;5015111;28;19912;-54
2022/06/29 04:40:33;;;;;;;;;;;16.60;99.90;;;;;;5015252;28;19905;-57
2022/06/29 04:42:59;;;;;;;;;;;16.70;99.90;;;;;;5015297;28;19905;-57
2022/06/29 04:48:08;;;;;;;;;;;16.70;99.90;;;;;;5015271;28;19928;-57
2022/06/29 04:50:34;;;;;;;;;;;16.70;99.90;;;;;;5014677;28;20355;-58
2022/06/29 04:52:59;;;;;;;;;;;16.70;99.90;;;;;;5014828;28;19912;-57
2022/06/29 04:55:28;;;;;;;;;;;16.70;99.90;;;;;;5014721;28;19912;-56
2022/06/29 04:57:53;;;;;;;;;;;16.70;99.90;;;;;;5013591;28;19911;-51
2022/06/29 05:00:19;;;;;;;;;;;16.80;99.90;;;;;;5014651;28;19906;-56
2022/06/29 05:02:44;;;;;;;;;;;16.80;99.90;;;;;;5014721;28;19945;-56
2022/06/29 05:05:10;;;;;;;;;;;16.90;99.90;;;;;;5015087;28;19956;-54
2022/06/29 05:07:35;;;;;;;;;;;17.00;99.90;;;;;;5014999;28;19912;-55
2022/06/29 05:10:01;;;;;;;;;;;17.10;99.90;;;;;;5014461;28;19910;-53
2022/06/29 05:12:26;;;;;;;;;;;17.20;99.90;;;;;;5014609;28;19909;-56
2022/06/29 05:14:52;;;;;;;;;;;17.20;99.90;;;;;;5014503;28;19912;-56
2022/06/29 05:17:17;;;;;;;;;;;17.30;99.90;;;;;;5014309;28;20287;-56
2022/06/29 05:19:43;;;;;;;;;;;17.40;99.90;;;;;;5014264;28;19996;-52
2022/06/29 05:22:08;;;;;;;;;;;17.50;99.90;;;;;;5014357;28;19911;-53
2022/06/29 05:24:34;;;;;;;;;;;17.50;99.90;;;;;;5014632;28;19991;-53
2022/06/29 05:27:00;;;;;;;;;;;17.60;99.90;;;;;;5014122;28;19979;-55
2022/06/29 05:29:25;;;;;;;;;;;17.70;99.90;;;;;;5015025;28;20370;-55
2022/06/29 05:31:51;;;;;;;;;;;17.80;99.90;;;;;;5015506;28;20365;-57
2022/06/29 05:34:17;;;;;;;;;;;17.90;99.90;;;;;;5014474;28;19905;-57
2022/06/29 05:36:42;;;;;;;;;;;18.00;99.90;;;;;;5014262;28;19906;-56
2022/06/29 05:39:08;;;;;;;;;;;18.10;99.90;;;;;;5013501;28;19905;-55
2022/06/29 05:41:33;;;;;;;;;;;18.20;99.90;;;;;;5014344;28;19997;-55
2022/06/29 05:43:59;;;;;;;;;;;18.30;99.90;;;;;;5014220;28;19906;-53
2022/06/29 05:46:25;;;;;;;;;;;18.40;99.90;;;;;;5014299;28;19909;-55
2022/06/29 05:48:50;;;;;;;;;;;18.40;99.90;;;;;;5014365;28;20359;-57
2022/06/29 05:51:16;;;;;;;;;;;18.50;99.90;;;;;;5014134;28;19921;-57
2022/06/29 05:53:41;;;;;;;;;;;18.60;99.90;;;;;;5014312;28;19905;-58
2022/06/29 05:56:07;;;;;;;;;;;18.60;99.90;;;;;;5013861;28;20413;-57
2022/06/29 05:58:32;;;;;;;;;;;18.60;99.90;;;;;;5014239;28;19905;-56
2022/06/29 06:00:58;;;;;;;;;;;18.60;99.90;;;;;;5012898;28;20017;-57
2022/06/29 06:03:23;;;;;;;;;;;18.70;99.90;;;;;;5014342;28;19955;-57
2022/06/29 06:05:49;;;;;;;;;;;18.70;99.90;;;;;;5013529;28;20021;-55
2022/06/29 06:08:15;;;;;;;;;;;18.80;99.90;;;;;;5012302;28;19906;-55
2022/06/29 06:10:41;;;;;;;;;;;18.90;99.90;;;;;;5012332;28;19913;-57
2022/06/29 06:13:06;;;;;;;;;;;19.00;99.90;;;;;;5011886;28;19906;-56
2022/06/29 06:15:32;;;;;;;;;;;19.00;99.90;;;;;;5012794;28;19955;-57
2022/06/29 06:17:58;;;;;;;;;;;19.10;99.90;;;;;;5012796;28;19906;-57
2022/06/29 06:20:24;;;;;;;;;;;19.20;99.90;;;;;;5012735;28;19955;-53
2022/06/29 06:22:49;;;;;;;;;;;19.30;99.90;;;;;;5045018;22;19929;-74
2022/06/29 06:25:15;;;;;;;;;;;19.40;99.90;;;;;;4993312;28;19906;-74
2022/06/29 06:27:41;;;;;;;;;;;19.50;99.90;;;;;;4994390;28;19906;-74
2022/06/29 06:30:06;;;;;;;;;;;19.60;99.90;;;;;;4994755;28;20298;-74
2022/06/29 06:32:32;;;;;;;;;;;19.70;99.90;;;;;;4995137;28;19916;-75
2022/06/29 06:34:57;;;;;;;;;;;19.80;99.90;;;;;;4995008;28;20000;-76
2022/06/29 06:37:23;;;;;;;;;;;19.90;99.90;;;;;;4995034;28;19905;-75
2022/06/29 06:42:32;;;;;;;;;;;20.10;99.90;;;;;;4999236;28;19912;-74
2022/06/29 06:44:58;;;;;;;;;;;20.20;99.90;;;;;;4998235;28;19956;-75
2022/06/29 06:47:23;;;;;;;;;;;20.40;99.90;;;;;;4997802;28;20021;-75
2022/06/29 06:49:49;;;;;;;;;;;20.40;99.90;;;;;;5000366;28;19906;-75
2022/06/29 06:52:17;;;;;;;;;;;20.60;99.90;;;;;;5003872;28;19905;-76
2022/06/29 06:54:44;;;;;;;;;;;20.70;99.90;;;;;;5003636;28;19910;-75
2022/06/29 06:57:11;;;;;;;;;;;20.80;99.90;;;;;;5011541;28;19906;-74
2022/06/29 06:59:37;;;;;;;;;;;20.90;99.90;;;;;;5007462;28;19909;-75
2022/06/29 07:02:02;;;;;;;;;;;21.00;99.90;;;;;;4999282;28;20391;-75
2022/06/29 07:04:28;;;;;;;;;;;21.10;99.90;;;;;;5001614;28;20021;-75
2022/06/29 07:06:53;;;;;;;;;;;21.20;99.90;;;;;;4998085;28;19968;-76
2022/06/29 07:09:19;;;;;;;;;;;21.20;99.90;;;;;;4998427;28;19956;-75
2022/06/29 07:11:45;;;;;;;;;;;21.30;99.90;;;;;;4998278;28;19925;-75
2022/06/29 07:14:11;;;;;;;;;;;21.30;99.90;;;;;;4999881;28;19960;-75
2022/06/29 07:16:36;;;;;;;;;;;21.30;99.90;;;;;;5002857;28;19906;-75
2022/06/29 07:19:02;;;;;;;;;;;21.40;99.90;;;;;;5004639;28;19906;-75
2022/06/29 07:21:27;;;;;;;;;;;21.40;99.90;;;;;;5003206;28;19906;-75
2022/06/29 07:23:58;;;;;;;;;;;21.50;99.90;;;;;;5003390;28;19917;-75
2022/06/29 07:26:24;;;;;;;;;;;21.50;99.90;;;;;;5003968;28;19913;-75
2022/06/29 07:28:49;;;;;;;;;;;21.40;99.90;;;;;;4998403;28;19910;-76
2022/06/29 07:31:15;;;;;;;;;;;21.50;99.90;;;;;;4984998;28;20011;-76
2022/06/29 07:33:41;;;;;;;;;;;21.50;99.90;;;;;;5003513;28;19909;-75
2022/06/29 07:36:07;;;;;;;;;;;21.60;99.90;;;;;;5000822;28;19905;-75
2022/06/29 07:38:33;;;;;;;;;;;21.70;99.90;;;;;;5001037;28;20001;-75
2022/06/29 07:41:00;;;;;;;;;;;21.70;99.90;;;;;;5012177;28;19910;-76
2022/06/29 07:43:27;;;;;;;;;;;21.70;99.90;;;;;;4999916;28;19928;-76
2022/06/29 07:45:52;;;;;;;;;;;21.70;99.90;;;;;;4998767;28;19910;-75
2022/06/29 07:48:18;;;;;;;;;;;21.80;99.90;;;;;;4998930;28;19913;-76
2022/06/29 07:50:43;;;;;;;;;;;21.90;99.90;;;;;;4999239;28;19913;-75
2022/06/29 07:53:10;;;;;;;;;;;21.90;99.90;;;;;;4996311;28;20302;-75
2022/06/29 07:55:36;;;;;;;;;;;22.00;99.90;;;;;;4999737;28;20275;-76
2022/06/29 07:58:01;;;;;;;;;;;22.20;99.90;;;;;;4998652;28;19914;-76
2022/06/29 08:00:27;;;;;;;;;;;22.30;99.90;;;;;;4995820;28;19909;-77
2022/06/29 08:02:52;;;;;;;;;;;22.40;99.90;;;;;;4998884;28;20287;-75
2022/06/29 08:05:18;;;;;;;;;;;22.50;99.90;;;;;;4998819;28;19906;-75
2022/06/29 08:07:43;;;;;;;;;;;22.60;99.90;;;;;;4998981;28;19906;-75
2022/06/29 08:10:09;;;;;;;;;;;22.70;99.90;;;;;;4999246;28;19910;-76
2022/06/29 08:12:35;;;;;;;;;;;22.70;99.90;;;;;;5001890;28;19905;-75
2022/06/29 08:15:00;;;;;;;;;;;22.80;99.90;;;;;;5003015;28;19913;-75
2022/06/29 08:17:26;;;;;;;;;;;22.90;99.90;;;;;;5002012;28;19909;-75
2022/06/29 08:19:52;;;;;;;;;;;23.10;99.90;;;;;;5000412;28;19916;-76
2022/06/29 08:22:17;;;;;;;;;;;23.30;99.90;;;;;;4997412;28;19910;-75
2022/06/29 08:24:43;;;;;;;;;;;23.50;99.90;;;;;;5001509;28;20409;-75
2022/06/29 08:27:08;;;;;;;;;;;23.70;99.90;;;;;;5000626;28;19905;-75
2022/06/29 08:29:34;;;;;;;;;;;23.80;99.90;;;;;;5002300;28;19906;-76
2022/06/29 08:31:59;;;;;;;;;;;23.90;99.90;;;;;;4998615;28;20243;-77
2022/06/29 08:34:45;;;;;;;;;;;23.90;99.90;;;;;;5001557;28;19905;-75
2022/06/29 08:37:10;;;;;;;;;;;24.00;99.90;;;;;;5001204;28;20378;-76
2022/06/29 08:39:36;;;;;;;;;;;24.20;99.90;;;;;;5002024;28;19906;-76
2022/06/29 08:42:04;;;;;;;;;;;24.20;99.90;;;;;;4998023;28;19910;-77
2022/06/29 08:44:31;;;;;;;;;;;24.30;99.90;;;;;;4996752;28;19996;-76
2022/06/29 08:46:58;;;;;;;;;;;24.30;99.90;;;;;;4996009;28;19906;-76
2022/06/29 08:49:24;;;;;;;;;;;24.40;99.90;;;;;;4994736;28;19910;-76
2022/06/29 08:51:51;;;;;;;;;;;24.50;99.90;;;;;;4995963;28;19941;-76
2022/06/29 08:54:17;;;;;;;;;;;24.60;99.90;;;;;;4996179;28;19906;-76
2022/06/29 08:56:43;;;;;;;;;;;24.60;99.90;;;;;;4996121;28;19944;-76
2022/06/29 08:59:09;;;;;;;;;;;24.70;99.90;;;;;;4996450;28;20352;-76
2022/06/29 09:01:36;;;;;;;;;;;24.80;99.90;;;;;;4994906;28;19913;-76
2022/06/29 09:04:02;;;;;;;;;;;24.80;99.90;;;;;;4994530;28;19909;-76
2022/06/29 09:06:27;;;;;;;;;;;24.80;99.90;;;;;;4995783;28;20047;-76
2022/06/29 09:08:53;;;;;;;;;;;24.90;99.90;;;;;;4996242;28;19913;-75
2022/06/29 09:11:25;;;;;;;;;;;24.80;99.90;;;;;;4997045;28;20334;-76
2022/06/29 09:14:10;;;;;;;;;;;24.80;99.90;;;;;;4993340;28;19942;-75
2022/06/29 09:16:54;;;;;;;;;;;24.90;99.90;;;;;;4980231;28;19906;-75
2022/06/29 09:19:20;;;;;;;;;;;25.20;99.90;;;;;;4987718;28;19980;-75
2022/06/29 09:21:46;;;;;;;;;;;25.30;99.90;;;;;;4992397;28;19914;-74
2022/06/29 09:24:15;;;;;;;;;;;25.30;99.90;;;;;;4992177;28;19925;-75
2022/06/29 09:26:41;;;;;;;;;;;25.30;99.90;;;;;;4991595;28;19906;-74
2022/06/29 09:29:26;;;;;;;;;;;25.40;99.90;;;;;;4979624;28;20107;-76
2022/06/29 09:32:10;;;;;;;;;;;25.50;99.90;;;;;;4976891;28;19920;-76
2022/06/29 09:34:45;;;;;;;;;;;25.50;99.90;;;;;;4977463;28;19928;-76
2022/06/29 09:37:15;;;;;;;;;;;25.60;99.90;;;;;;4977354;28;20415;-75
2022/06/29 09:39:43;;;;;;;;;;;25.60;99.90;;;;;;4976365;28;19913;-76
2022/06/29 09:42:13;;;;;;;;;;;25.70;99.90;;;;;;4976330;28;19957;-76
2022/06/29 09:44:39;;;;;;;;;;;25.80;99.90;;;;;;4975495;28;20280;-77
2022/06/29 09:47:15;;;;;;;;;;;25.90;99.90;;;;;;4977066;28;19930;-76
2022/06/29 09:49:45;;;;;;;;;;;25.90;99.90;;;;;;4976304;28;19913;-76
2022/06/29 09:52:11;;;;;;;;;;;26.00;99.90;;;;;;4981447;28;19960;-77
2022/06/29 09:54:44;;;;;;;;;;;26.10;99.90;;;;;;4999747;28;19906;-76
2022/06/29 09:57:11;;;;;;;;;;;26.30;99.90;;;;;;5000888;28;20282;-76
2022/06/29 10:05:12;;;;;;;;;;;26.40;99.90;;;;;;5006811;28;19913;-78
2022/06/29 10:07:39;;;;;;;;;;;26.40;99.90;;;;;;5002955;28;19928;-77
2022/06/29 10:10:06;;;;;;;;;;;26.30;99.90;;;;;;5002903;28;20047;-76
2022/06/29 10:15:39;;;;;;;;;;;26.60;99.90;;;;;;5003333;28;19968;-76
2022/06/29 10:18:18;;;;;;;;;;;26.80;99.90;;;;;;4999339;28;19913;-76
2022/06/29 10:20:48;;;;;;;;;;;26.80;99.90;;;;;;5001462;28;19905;-77
2022/06/29 10:23:32;;;;;;;;;;;26.90;99.90;;;;;;4997800;28;19980;-77
2022/06/29 10:26:00;;;;;;;;;;;27.00;99.90;;;;;;5000398;28;19960;-77
2022/06/29 10:28:25;;;;;;;;;;;27.00;99.90;;;;;;5001451;28;19941;-77
2022/06/29 10:30:53;;;;;;;;;;;27.00;99.90;;;;;;5001834;28;19914;-76
2022/06/29 10:33:32;;;;;;;;;;;27.10;99.90;;;;;;5002166;28;19914;-77
2022/06/29 10:38:31;;;;;;;;;;;27.20;99.90;;;;;;4993838;28;19981;-77
2022/06/29 10:43:07;;;;;;;;;;;27.30;99.90;;;;;;4988905;28;19916;-78
2022/06/29 10:43:55;;;;;;;;;;;27.30;99.90;;;;;;4995727;28;20016;-77
2022/06/29 10:46:21;;;;;;;;;;;27.20;99.90;;;;;;4989709;28;19949;-77
2022/06/29 10:49:06;;;;;;;;;;;27.20;99.90;;;;;;5001561;28;19912;-78
2022/06/29 10:51:32;;;;;;;;;;;27.20;99.90;;;;;;5008485;28;20024;-78
2022/06/29 10:53:57;;;;;;;;;;;27.20;99.90;;;;;;5005999;28;19940;-76
2022/06/29 10:56:23;;;;;;;;;;;27.10;99.90;;;;;;5002824;28;19913;-77
2022/06/29 10:58:48;;;;;;;;;;;27.10;99.90;;;;;;5002421;28;19906;-79
2022/06/29 11:01:14;;;;;;;;;;;27.10;99.90;;;;;;5003635;28;19945;-76
2022/06/29 11:03:39;;;;;;;;;;;27.10;99.90;;;;;;4999053;28;19912;-77
2022/06/29 11:17:02;;;;;;;;;;;27.50;99.90;;;;;;5003465;28;20007;-78
2022/06/29 11:19:30;;;;;;;;;;;27.60;99.90;;;;;;4999503;28;19909;-78
2022/06/29 11:22:08;;;;;;;;;;;27.60;99.90;;;;;;5001829;28;19912;-78
2022/06/29 11:24:48;;;;;;;;;;;27.60;99.90;;;;;;4998174;28;19976;-78
2022/06/29 11:27:29;;;;;;;;;;;27.60;99.90;;;;;;5003795;28;19992;-76
2022/06/29 11:29:54;;;;;;;;;;;27.70;99.80;;;;;;5004029;28;20367;-78
2022/06/29 11:32:25;;;;;;;;;;;27.60;99.80;;;;;;5000774;28;19906;-78
2022/06/29 11:34:57;;;;;;;;;;;27.50;99.70;;;;;;4999737;28;19914;-78
2022/06/29 11:37:23;;;;;;;;;;;27.50;99.10;;;;;;5004491;28;19906;-79
2022/06/29 11:39:48;;;;;;;;;;;27.50;99.30;;;;;;5000939;28;19932;-77
2022/06/29 11:45:05;;;;;;;;;;;27.50;98.70;;;;;;5000285;28;19916;-78
2022/06/29 11:47:31;;;;;;;;;;;27.50;97.90;;;;;;5004281;28;20106;-78
2022/06/29 11:49:58;;;;;;;;;;;27.40;97.30;;;;;;5018716;28;19896;-78
2022/06/29 11:52:32;;;;;;;;;;;27.50;96.70;;;;;;5019711;28;19890;-77
2022/06/29 11:55:01;;;;;;;;;;;27.40;97.10;;;;;;5018829;28;19900;-77
2022/06/29 11:57:27;;;;;;;;;;;27.50;96.80;;;;;;5018037;28;19909;-76
2022/06/29 12:00:03;;;;;;;;;;;27.80;96.30;;;;;;5001576;28;19906;-77
2022/06/29 12:02:32;;;;;;;;;;;27.90;96.30;;;;;;4986620;28;19913;-78
2022/06/29 12:04:59;;;;;;;;;;;28.10;95.70;;;;;;4982268;28;19906;-77
2022/06/29 12:07:24;;;;;;;;;;;28.30;95.60;;;;;;4982829;28;20287;-78
2022/06/29 12:09:51;;;;;;;;;;;28.40;95.20;;;;;;5005106;28;19909;-76
2022/06/29 12:12:17;;;;;;;;;;;28.50;95.40;;;;;;5012517;28;19909;-77
2022/06/29 12:14:43;;;;;;;;;;;28.70;94.70;;;;;;5008014;28;19937;-77
2022/06/29 12:17:10;;;;;;;;;;;28.70;94.80;;;;;;5001363;28;20368;-76
2022/06/29 12:19:38;;;;;;;;;;;28.80;94.50;;;;;;5004768;28;20001;-77
2022/06/29 12:22:04;;;;;;;;;;;28.80;93.10;;;;;;4995459;28;19921;-77
2022/06/29 12:24:29;;;;;;;;;;;28.90;93.00;;;;;;4999763;28;19914;-77
2022/06/29 12:26:55;;;;;;;;;;;28.80;92.90;;;;;;5026581;23;19889;-71
2022/06/29 12:29:21;;;;;;;;;;;28.90;93.40;;;;;;5015349;28;19918;-73
2022/06/29 12:31:47;;;;;;;;;;;28.80;93.90;;;;;;5014407;28;19917;-73
2022/06/29 12:34:13;;;;;;;;;;;28.80;94.00;;;;;;5014140;28;20005;-73
2022/06/29 12:36:39;;;;;;;;;;;28.90;94.30;;;;;;5007963;28;19905;-73
2022/06/29 12:39:06;;;;;;;;;;;28.80;94.20;;;;;;4996947;28;19906;-73
2022/06/29 12:41:32;;;;;;;;;;;28.80;94.30;;;;;;5007386;28;19963;-73
2022/06/29 12:43:57;;;;;;;;;;;28.80;93.70;;;;;;5009566;28;20350;-73
2022/06/29 12:46:23;;;;;;;;;;;28.70;93.50;;;;;;5007401;28;19906;-73
2022/06/29 12:48:48;;;;;;;;;;;28.70;93.50;;;;;;5012672;28;19905;-73
2022/06/29 12:51:14;;;;;;;;;;;28.70;93.00;;;;;;5005176;28;19916;-73
2022/06/29 12:53:39;;;;;;;;;;;28.60;93.40;;;;;;5014856;28;19927;-73
2022/06/29 12:56:06;;;;;;;;;;;28.50;93.90;;;;;;5016109;28;19912;-73
2022/06/29 12:58:32;;;;;;;;;;;28.30;93.60;;;;;;5016330;28;19940;-73
2022/06/29 13:00:57;;;;;;;;;;;28.20;93.90;;;;;;5015931;28;19912;-72
2022/06/29 13:03:23;;;;;;;;;;;28.00;94.00;;;;;;5016030;28;20358;-73
2022/06/29 13:05:49;;;;;;;;;;;27.80;94.00;;;;;;5010561;28;19964;-72
2022/06/29 13:08:15;;;;;;;;;;;27.80;93.80;;;;;;5009267;28;19909;-72
2022/06/29 13:10:41;;;;;;;;;;;27.80;94.30;;;;;;5015708;28;20443;-72
2022/06/29 13:13:07;;;;;;;;;;;27.90;94.10;;;;;;5014847;28;19909;-72
2022/06/29 13:15:32;;;;;;;;;;;27.90;93.60;;;;;;5018888;28;20278;-72
2022/06/29 13:17:58;;;;;;;;;;;27.90;93.40;;;;;;5022448;28;19916;-73
2022/06/29 13:20:24;;;;;;;;;;;28.00;93.30;;;;;;5007398;28;19905;-72
2022/06/29 13:22:51;;;;;;;;;;;28.20;92.60;;;;;;5016128;28;20321;-72
2022/06/29 13:25:17;;;;;;;;;;;28.20;91.80;;;;;;5016150;28;19977;-72
2022/06/29 13:27:42;;;;;;;;;;;28.20;91.10;;;;;;5012077;28;19917;-73
2022/06/29 13:30:08;;;;;;;;;;;28.30;90.80;;;;;;4996549;28;20330;-73
2022/06/29 13:32:34;;;;;;;;;;;28.30;91.40;;;;;;4998222;28;19932;-72
2022/06/29 13:34:59;;;;;;;;;;;28.30;92.20;;;;;;5005619;28;20346;-72
2022/06/29 13:37:25;;;;;;;;;;;28.40;92.20;;;;;;5007055;28;19910;-72
2022/06/29 13:39:50;;;;;;;;;;;28.40;92.20;;;;;;5013195;28;19929;-72
2022/06/29 13:42:16;;;;;;;;;;;28.40;92.50;;;;;;5015722;28;19951;-72
2022/06/29 13:44:41;;;;;;;;;;;28.50;91.80;;;;;;5015595;28;20053;-73
2022/06/29 13:47:07;;;;;;;;;;;28.50;91.20;;;;;;5013410;28;19905;-72
2022/06/29 13:49:35;;;;;;;;;;;28.50;91.50;;;;;;4999195;28;19945;-73
2022/06/29 13:52:01;;;;;;;;;;;28.50;91.80;;;;;;4999020;28;19909;-72
2022/06/29 13:54:27;;;;;;;;;;;28.60;92.00;;;;;;5011975;28;19920;-72
2022/06/29 13:56:53;;;;;;;;;;;28.60;91.70;;;;;;5012212;28;20258;-73
2022/06/29 13:59:18;;;;;;;;;;;28.50;91.70;;;;;;5009296;28;20363;-72
2022/06/29 14:01:44;;;;;;;;;;;28.60;92.10;;;;;;5010476;28;19906;-73
2022/06/29 14:04:10;;;;;;;;;;;28.60;92.10;;;;;;5012822;28;19952;-73
2022/06/29 14:06:35;;;;;;;;;;;28.60;91.90;;;;;;5012153;28;19956;-72
2022/06/29 14:09:01;;;;;;;;;;;28.60;91.80;;;;;;5012689;28;19956;-73
2022/06/29 14:11:27;;;;;;;;;;;28.70;92.00;;;;;;5012742;28;19964;-72
2022/06/29 14:13:53;;;;;;;;;;;28.70;91.90;;;;;;5011610;28;19917;-73
2022/06/29 14:16:18;;;;;;;;;;;28.60;91.70;;;;;;5012839;28;19979;-73
2022/06/29 14:18:44;;;;;;;;;;;28.50;91.70;;;;;;5010531;28;19909;-73
2022/06/29 14:21:10;;;;;;;;;;;28.40;91.60;;;;;;5008488;28;20481;-73
2022/06/29 14:23:35;;;;;;;;;;;28.20;91.90;;;;;;5010414;28;20000;-73
2022/06/29 14:26:01;;;;;;;;;;;28.20;91.60;;;;;;5012434;28;20014;-74
2022/06/29 14:28:26;;;;;;;;;;;28.20;91.50;;;;;;5009971;28;19917;-73
2022/06/29 14:30:52;;;;;;;;;;;28.20;91.70;;;;;;5013479;28;19910;-73
2022/06/29 14:33:17;;;;;;;;;;;28.30;91.70;;;;;;5009339;28;20000;-74
2022/06/29 14:35:45;;;;;;;;;;;28.40;91.40;;;;;;5010769;28;19915;-73
2022/06/29 14:38:11;;;;;;;;;;;28.40;91.60;;;;;;5011220;28;19917;-73
2022/06/29 14:40:36;;;;;;;;;;;28.30;91.40;;;;;;5012647;28;19913;-73
2022/06/29 14:43:02;;;;;;;;;;;28.30;91.70;;;;;;5010886;28;19913;-73
2022/06/29 14:45:28;;;;;;;;;;;28.40;91.50;;;;;;5012268;28;20278;-74
2022/06/29 14:47:55;;;;;;;;;;;28.50;91.40;;;;;;5011712;28;19913;-73